createdAt,value
2018-03-19T00:02:02.716Z,100846.44
2018-03-19T00:04:30.832Z,100847.45
2018-03-19T00:06:58.985Z,100846.38
2018-03-19T00:09:27.122Z,100845.55
2018-03-19T00:11:55.274Z,100842.70
2018-03-19T00:14:23.405Z,100849.31
2018-03-19T00:16:51.545Z,100844.56
2018-03-19T00:19:19.668Z,100837.66
2018-03-19T00:21:47.789Z,100843.52
2018-03-19T00:24:15.927Z,100832.88
2018-03-19T00:26:44.047Z,100827.05
2018-03-19T00:29:12.182Z,100831.48
2018-03-19T00:31:40.335Z,100834.84
2018-03-19T00:34:08.477Z,100834.88
2018-03-19T00:36:36.620Z,100834.31
2018-03-19T00:39:04.884Z,100843.75
2018-03-19T00:41:33.101Z,100836.52
2018-03-19T00:44:01.232Z,100838.48
2018-03-19T00:46:29.377Z,100839.98
2018-03-19T00:48:57.504Z,100834.31
2018-03-19T00:51:25.662Z,100836.42
2018-03-19T00:53:53.797Z,100843.34
2018-03-19T00:56:21.937Z,100831.32
2018-03-19T00:58:50.064Z,100833.56
2018-03-19T01:01:18.200Z,100828.64
2018-03-19T01:03:46.348Z,100831.11
2018-03-19T01:06:14.497Z,100821.41
2018-03-19T01:08:42.621Z,100824.91
2018-03-19T01:11:10.758Z,100827.27
2018-03-19T01:13:38.907Z,100815.58
2018-03-19T01:16:07.050Z,100818.78
2018-03-19T01:18:35.196Z,100816.92
2018-03-19T01:21:03.479Z,100819.71
2018-03-19T01:23:31.625Z,100815.23
2018-03-19T01:25:59.764Z,100815.48
2018-03-19T01:28:27.897Z,100809.78
2018-03-19T01:30:56.040Z,100818.59
2018-03-19T01:33:24.177Z,100814.16
2018-03-19T01:35:52.324Z,100809.50
2018-03-19T01:38:20.478Z,100809.41
2018-03-19T01:40:48.609Z,100816.05
2018-03-19T01:43:16.753Z,100806.03
2018-03-19T01:45:44.909Z,100810.31
2018-03-19T01:48:13.061Z,100812.62
2018-03-19T01:50:41.197Z,100802.31
2018-03-19T01:53:09.341Z,100806.81
2018-03-19T01:55:37.495Z,100809.03
2018-03-19T01:58:05.619Z,100807.63
2018-03-19T02:00:33.750Z,100805.98
2018-03-19T02:03:01.913Z,100803.95
2018-03-19T02:05:30.042Z,100798.94
2018-03-19T02:07:58.191Z,100797.84
2018-03-19T02:10:26.472Z,100803.52
2018-03-19T02:12:54.610Z,100794.72
2018-03-19T02:15:22.839Z,100805.23
2018-03-19T02:17:50.920Z,100798.66
2018-03-19T02:20:19.087Z,100794.68
2018-03-19T02:22:47.230Z,100798.92
2018-03-19T02:25:15.400Z,100787.55
2018-03-19T02:27:43.545Z,100792.95
2018-03-19T02:30:11.708Z,100796.30
2018-03-19T02:32:39.829Z,100798.36
2018-03-19T02:35:07.965Z,100803.00
2018-03-19T02:37:36.115Z,100800.05
2018-03-19T02:40:04.255Z,100806.82
2018-03-19T02:42:34.308Z,100801.84
2018-03-19T02:45:02.440Z,100795.48
2018-03-19T02:47:30.587Z,100800.71
2018-03-19T02:49:58.736Z,100808.03
2018-03-19T02:52:26.881Z,100798.08
2018-03-19T02:54:55.098Z,100799.97
2018-03-19T02:57:23.226Z,100792.69
2018-03-19T02:59:51.363Z,100799.02
2018-03-19T03:02:19.513Z,100799.76
2018-03-19T03:04:47.694Z,100802.73
2018-03-19T03:07:15.813Z,100810.56
2018-03-19T03:09:43.960Z,100815.47
2018-03-19T03:12:12.136Z,100811.39
2018-03-19T03:14:40.262Z,100812.92
2018-03-19T03:17:08.407Z,100812.80
2018-03-19T03:19:36.549Z,100812.50
2018-03-19T03:22:04.695Z,100817.23
2018-03-19T03:24:32.829Z,100814.04
2018-03-19T03:27:00.988Z,100815.98
2018-03-19T03:29:29.124Z,100822.12
2018-03-19T03:31:57.263Z,100813.78
2018-03-19T03:34:25.391Z,100818.98
2018-03-19T03:36:53.552Z,100814.02
2018-03-19T03:39:21.691Z,100820.11
2018-03-19T03:41:49.829Z,100816.07
2018-03-19T03:44:17.992Z,100812.50
2018-03-19T03:46:46.147Z,100824.15
2018-03-19T03:49:14.268Z,100819.06
2018-03-19T03:51:42.416Z,100821.00
2018-03-19T03:54:13.952Z,100825.94
2018-03-19T03:56:42.085Z,100813.55
2018-03-19T03:59:10.295Z,100818.95
2018-03-19T04:01:38.449Z,100814.98
2018-03-19T04:04:06.581Z,100817.20
2018-03-19T04:06:34.747Z,100820.61
2018-03-19T04:09:02.889Z,100816.98
2018-03-19T04:11:31.045Z,100821.94
2018-03-19T04:13:59.185Z,100824.88
2018-03-19T04:16:27.338Z,100830.63
2018-03-19T04:18:59.202Z,100835.11
2018-03-19T04:21:27.466Z,100830.45
2018-03-19T04:23:56.008Z,100833.34
2018-03-19T04:26:24.140Z,100840.96
2018-03-19T04:28:52.552Z,100831.28
2018-03-19T04:31:20.704Z,100835.78
2018-03-19T04:33:48.852Z,100837.59
2018-03-19T04:36:16.978Z,100829.58
2018-03-19T04:38:45.134Z,100839.61
2018-03-19T04:41:13.308Z,100838.45
2018-03-19T04:43:41.443Z,100838.05
2018-03-19T04:46:09.811Z,100835.88
2018-03-19T04:48:37.963Z,100843.59
2018-03-19T04:51:06.123Z,100838.00
2018-03-19T04:53:34.241Z,100838.81
2018-03-19T04:56:02.411Z,100842.10
2018-03-19T04:58:30.532Z,100841.43
2018-03-19T05:00:58.697Z,100852.63
2018-03-19T05:03:26.931Z,100841.23
2018-03-19T05:05:55.085Z,100839.54
2018-03-19T05:08:23.211Z,100843.20
2018-03-19T05:10:51.391Z,100830.95
2018-03-19T05:13:19.544Z,100835.71
2018-03-19T05:15:47.699Z,100832.99
2018-03-19T05:18:15.829Z,100845.36
2018-03-19T05:20:43.988Z,100839.24
2018-03-19T05:23:12.154Z,100836.58
2018-03-19T05:25:42.306Z,100850.08
2018-03-19T05:28:10.444Z,100848.61
2018-03-19T05:30:38.597Z,100842.76
2018-03-19T05:33:06.789Z,100850.20
2018-03-19T05:35:34.903Z,100851.61
2018-03-19T05:38:03.081Z,100859.03
2018-03-19T05:40:31.216Z,100858.36
2018-03-19T05:42:59.369Z,100862.54
2018-03-19T05:45:27.574Z,100864.02
2018-03-19T05:47:55.787Z,100863.16
2018-03-19T05:50:23.907Z,100860.81
2018-03-19T05:52:52.061Z,100868.94
2018-03-19T05:55:20.225Z,100870.92
2018-03-19T05:57:48.385Z,100877.23
2018-03-19T06:00:16.561Z,100886.59
2018-03-19T06:02:44.966Z,100887.86
2018-03-19T06:05:13.124Z,100884.22
2018-03-19T06:07:41.265Z,100896.66
2018-03-19T06:10:09.439Z,100891.41
2018-03-19T06:12:37.633Z,100897.45
2018-03-19T06:15:05.736Z,100899.89
2018-03-19T06:17:33.858Z,100895.64
2018-03-19T06:20:02.014Z,100898.06
2018-03-19T06:22:30.158Z,100904.70
2018-03-19T06:24:58.333Z,100908.45
2018-03-19T06:27:26.508Z,100917.08
2018-03-19T06:29:54.664Z,100910.94
2018-03-19T06:32:22.794Z,100904.20
2018-03-19T06:34:50.941Z,100906.88
2018-03-19T06:37:19.135Z,100923.69
2018-03-19T06:39:47.341Z,100909.48
2018-03-19T06:42:15.488Z,100901.30
2018-03-19T06:44:43.648Z,100913.44
2018-03-19T06:47:11.825Z,100922.95
2018-03-19T06:49:39.945Z,100912.92
2018-03-19T06:52:08.098Z,100919.45
2018-03-19T06:54:36.247Z,100906.80
2018-03-19T06:57:04.398Z,100919.61
2018-03-19T06:59:32.540Z,100922.63
2018-03-19T07:02:00.688Z,100909.10
2018-03-19T07:04:28.839Z,100914.33
2018-03-19T07:06:56.964Z,100912.61
2018-03-19T07:09:25.107Z,100914.02
2018-03-19T07:11:53.267Z,100923.05
2018-03-19T07:14:21.401Z,100916.08
2018-03-19T07:16:49.553Z,100909.88
2018-03-19T07:19:17.686Z,100918.00
2018-03-19T07:21:45.896Z,100921.56
2018-03-19T07:24:14.028Z,100924.98
2018-03-19T07:26:42.157Z,100929.40
2018-03-19T07:29:10.291Z,100925.81
2018-03-19T07:31:38.458Z,100932.74
2018-03-19T07:34:06.611Z,100927.87
2018-03-19T07:36:34.750Z,100932.30
2018-03-19T07:39:02.932Z,100934.08
2018-03-19T07:41:31.071Z,100934.01
2018-03-19T07:43:59.227Z,100941.47
2018-03-19T07:46:27.361Z,100943.69
2018-03-19T07:48:55.481Z,100940.32
2018-03-19T07:51:23.605Z,100942.37
2018-03-19T07:53:51.732Z,100944.73
2018-03-19T07:56:19.906Z,100946.33
2018-03-19T07:58:48.051Z,100943.79
2018-03-19T08:01:16.182Z,100940.89
2018-03-19T08:03:44.317Z,100942.03
2018-03-19T08:06:12.461Z,100937.70
2018-03-19T08:08:40.616Z,100955.67
2018-03-19T08:11:08.774Z,100947.50
2018-03-19T08:13:36.910Z,100945.63
2018-03-19T08:16:05.050Z,100947.52
2018-03-19T08:18:33.262Z,100954.12
2018-03-19T08:21:01.445Z,100958.28
2018-03-19T08:23:29.624Z,100953.12
2018-03-19T08:25:57.914Z,100952.51
2018-03-19T08:28:26.055Z,100956.66
2018-03-19T08:30:54.564Z,100953.87
2018-03-19T08:33:22.687Z,100953.74
2018-03-19T08:35:50.830Z,100956.02
2018-03-19T08:38:18.947Z,100971.74
2018-03-19T08:40:47.089Z,100949.88
2018-03-19T08:43:15.217Z,100946.35
2018-03-19T08:45:43.365Z,100943.22
2018-03-19T08:48:11.492Z,100942.16
2018-03-19T08:50:39.640Z,100944.05
2018-03-19T08:53:07.821Z,100949.52
2018-03-19T08:55:35.957Z,100948.90
2018-03-19T08:58:04.096Z,100951.30
2018-03-19T09:00:32.227Z,100952.66
2018-03-19T09:03:00.378Z,100968.03
2018-03-19T09:05:28.507Z,100958.85
2018-03-19T09:07:56.651Z,100959.91
2018-03-19T09:10:24.785Z,100949.14
2018-03-19T09:12:52.921Z,100953.64
2018-03-19T09:15:21.053Z,100946.84
2018-03-19T09:17:49.210Z,100949.39
2018-03-19T09:20:18.350Z,100950.97
2018-03-19T09:22:46.492Z,100944.52
2018-03-19T09:25:14.698Z,100956.80
2018-03-19T09:27:42.794Z,100954.66
2018-03-19T09:30:10.941Z,100951.66
2018-03-19T09:32:39.071Z,100956.64
2018-03-19T09:35:07.230Z,100961.63
2018-03-19T09:37:35.363Z,100960.69
2018-03-19T09:40:03.494Z,100958.98
2018-03-19T09:42:31.659Z,100966.77
2018-03-19T09:44:59.793Z,100963.59
2018-03-19T09:47:27.950Z,100959.54
2018-03-19T09:49:56.119Z,100969.34
2018-03-19T09:52:24.321Z,100963.55
2018-03-19T09:54:52.457Z,100967.91
2018-03-19T09:57:20.617Z,100985.60
2018-03-19T09:59:48.734Z,100979.56
2018-03-19T10:02:16.904Z,100987.74
2018-03-19T10:04:45.063Z,100976.14
2018-03-19T10:07:13.219Z,100981.48
2018-03-19T10:09:41.352Z,100988.34
2018-03-19T10:12:10.479Z,100978.63
2018-03-19T10:14:38.715Z,100967.01
2018-03-19T10:17:06.855Z,100983.70
2018-03-19T10:19:34.984Z,100979.67
2018-03-19T10:22:03.139Z,100982.56
2018-03-19T10:24:31.302Z,100980.63
2018-03-19T10:26:59.463Z,100991.38
2018-03-19T10:29:27.614Z,100985.81
2018-03-19T10:31:55.771Z,100975.58
2018-03-19T10:34:23.917Z,100982.42
2018-03-19T10:36:52.076Z,100983.44
2018-03-19T10:39:23.160Z,100991.62
2018-03-19T10:41:51.314Z,100990.95
2018-03-19T10:44:19.461Z,100997.66
2018-03-19T10:46:47.598Z,100989.12
2018-03-19T10:49:15.756Z,100992.52
2018-03-19T10:51:43.895Z,100983.73
2018-03-19T10:54:12.024Z,100997.93
2018-03-19T10:56:40.158Z,100991.33
2018-03-19T10:59:08.341Z,100988.39
2018-03-19T11:01:42.197Z,100996.45
2018-03-19T11:04:11.256Z,100979.95
2018-03-19T11:07:00.146Z,100991.95
2018-03-19T11:09:30.207Z,100999.27
2018-03-19T11:11:58.387Z,100990.88
2018-03-19T11:14:27.393Z,101002.72
2018-03-19T11:16:55.555Z,100989.64
2018-03-19T11:19:23.701Z,100988.86
2018-03-19T11:21:51.846Z,100995.30
2018-03-19T11:24:20.028Z,100998.43
2018-03-19T11:26:48.200Z,100993.17
2018-03-19T11:29:16.340Z,100975.72
2018-03-19T11:31:44.472Z,100998.52
2018-03-19T11:34:12.606Z,100987.36
2018-03-19T11:36:40.779Z,100973.41
2018-03-19T11:39:08.912Z,100971.50
2018-03-19T11:41:37.053Z,100977.36
2018-03-19T11:44:05.187Z,100972.37
2018-03-19T11:46:33.372Z,100981.89
2018-03-19T11:49:01.521Z,100962.50
2018-03-19T11:51:29.668Z,100946.88
2018-03-19T11:53:57.810Z,100953.31
2018-03-19T11:56:25.953Z,100944.22
2018-03-19T11:58:54.075Z,100950.03
2018-03-19T12:01:22.228Z,100956.30
2018-03-19T12:03:50.352Z,100960.25
2018-03-19T12:06:18.488Z,100956.55
2018-03-19T12:08:46.610Z,100947.79
2018-03-19T12:11:14.777Z,100951.17
2018-03-19T12:13:42.957Z,100947.27
2018-03-19T12:16:11.103Z,100943.06
2018-03-19T12:18:39.279Z,100947.24
2018-03-19T12:21:07.415Z,100939.83
2018-03-19T12:23:35.551Z,100933.05
2018-03-19T12:26:03.700Z,100953.45
2018-03-19T12:28:31.843Z,100965.17
2018-03-19T12:31:00.023Z,100957.63
2018-03-19T12:33:28.206Z,100956.38
2018-03-19T12:35:56.356Z,100954.82
2018-03-19T12:38:24.513Z,100954.92
2018-03-19T12:40:52.837Z,100943.34
2018-03-19T12:43:20.997Z,100945.37
2018-03-19T12:45:49.194Z,100934.23
2018-03-19T12:48:20.717Z,100936.48
2018-03-19T12:50:52.912Z,100958.93
2018-03-19T12:53:21.019Z,100951.50
2018-03-19T12:55:49.300Z,100938.96
2018-03-19T12:58:17.426Z,100936.82
2018-03-19T13:00:45.574Z,100936.15
2018-03-19T13:03:15.668Z,100919.11
2018-03-19T13:05:43.799Z,100931.37
2018-03-19T13:08:15.151Z,100934.28
2018-03-19T13:10:43.307Z,100915.37
2018-03-19T13:13:11.458Z,100906.74
2018-03-19T13:15:39.632Z,100901.66
2018-03-19T13:18:08.028Z,100914.36
2018-03-19T13:20:36.124Z,100913.62
2018-03-19T13:23:04.272Z,100921.48
2018-03-19T13:25:32.441Z,100918.73
2018-03-19T13:28:00.581Z,100920.50
2018-03-19T13:30:28.729Z,100918.77
2018-03-19T13:32:56.863Z,100915.33
2018-03-19T13:35:25.005Z,100919.73
2018-03-19T13:37:53.174Z,100927.89
2018-03-19T13:40:21.340Z,100915.66
2018-03-19T13:42:49.497Z,100923.22
2018-03-19T13:45:17.664Z,100906.36
2018-03-19T13:47:45.797Z,100916.98
2018-03-19T13:50:13.933Z,100909.14
2018-03-19T13:52:42.099Z,100918.60
2018-03-19T13:55:10.224Z,100907.45
2018-03-19T13:57:38.370Z,100909.90
2018-03-19T14:00:06.515Z,100902.47
2018-03-19T14:02:34.658Z,100902.53
2018-03-19T14:05:02.793Z,100909.42
2018-03-19T14:07:30.956Z,100906.59
2018-03-19T14:09:59.098Z,100908.24
2018-03-19T14:12:27.320Z,100914.92
2018-03-19T14:14:55.579Z,100914.87
2018-03-19T14:17:23.719Z,100904.23
2018-03-19T14:19:51.883Z,100909.09
2018-03-19T14:22:20.039Z,100904.07
2018-03-19T14:24:48.192Z,100913.85
2018-03-19T14:27:16.330Z,100906.52
2018-03-19T14:29:44.469Z,100901.58
2018-03-19T14:32:12.619Z,100906.05
2018-03-19T14:34:40.755Z,100912.08
2018-03-19T14:37:08.951Z,100906.56
2018-03-19T14:39:37.099Z,100896.42
2018-03-19T14:42:08.961Z,100904.53
2018-03-19T14:44:37.129Z,100911.73
2018-03-19T14:47:05.252Z,100914.80
2018-03-19T14:49:33.407Z,100910.48
2018-03-19T14:52:01.554Z,100909.62
2018-03-19T14:54:29.695Z,100904.73
2018-03-19T14:56:57.883Z,100915.87
2018-03-19T14:59:26.064Z,100901.62
2018-03-19T15:01:54.187Z,100907.89
2018-03-19T15:04:22.328Z,100908.83
2018-03-19T15:06:50.476Z,100909.98
2018-03-19T15:09:18.616Z,100904.67
2018-03-19T15:11:49.772Z,100908.44
2018-03-19T15:14:18.090Z,100911.52
2018-03-19T15:16:46.238Z,100911.87
2018-03-19T15:19:14.412Z,100905.43
2018-03-19T15:21:42.545Z,100907.02
2018-03-19T15:24:10.715Z,100909.20
2018-03-19T15:26:38.999Z,100901.59
2018-03-19T15:29:07.154Z,100907.74
2018-03-19T15:31:35.275Z,100897.97
2018-03-19T15:34:03.440Z,100912.07
2018-03-19T15:36:31.602Z,100910.24
2018-03-19T15:38:59.765Z,100904.16
2018-03-19T15:41:27.911Z,100907.25
2018-03-19T15:43:56.089Z,100911.53
2018-03-19T15:46:24.214Z,100904.87
2018-03-19T15:48:52.359Z,100908.39
2018-03-19T15:51:20.506Z,100905.83
2018-03-19T15:53:48.644Z,100901.20
2018-03-19T15:56:17.132Z,100908.16
2018-03-19T15:58:45.317Z,100907.81
2018-03-19T16:01:13.433Z,100917.06
2018-03-19T16:03:41.570Z,100915.81
2018-03-19T16:06:09.739Z,100915.77
2018-03-19T16:08:37.906Z,100922.33
2018-03-19T16:11:06.050Z,100919.91
2018-03-19T16:13:34.190Z,100932.14
2018-03-19T16:16:02.356Z,100924.48
2018-03-19T16:18:30.516Z,100919.95
2018-03-19T16:20:58.636Z,100922.48
2018-03-19T16:23:26.765Z,100927.80
2018-03-19T16:25:54.912Z,100936.51
2018-03-19T16:28:23.887Z,100930.81
2018-03-19T16:30:52.027Z,100930.08
2018-03-19T16:33:20.373Z,100934.34
2018-03-19T16:35:48.542Z,100934.97
2018-03-19T16:38:16.670Z,100944.61
2018-03-19T16:40:44.940Z,100944.48
2018-03-19T16:43:13.094Z,100936.41
2018-03-19T16:45:45.023Z,100947.24
2018-03-19T16:48:13.190Z,100950.72
2018-03-19T16:50:41.360Z,100955.83
2018-03-19T16:53:09.512Z,100962.21
2018-03-19T16:55:37.654Z,100970.26
2018-03-19T16:58:05.833Z,100977.66
2018-03-19T17:00:34.004Z,100982.41
2018-03-19T17:03:02.144Z,100977.94
2018-03-19T17:05:30.284Z,100983.62
2018-03-19T17:07:58.433Z,100988.55
2018-03-19T17:10:26.580Z,100988.06
2018-03-19T17:12:54.770Z,100990.66
2018-03-19T17:15:22.916Z,100996.92
2018-03-19T17:17:51.066Z,101011.51
2018-03-19T17:20:19.212Z,100997.33
2018-03-19T17:22:47.356Z,101007.17
2018-03-19T17:25:15.612Z,101002.65
2018-03-19T17:27:43.822Z,101009.47
2018-03-19T17:30:11.982Z,101008.45
2018-03-19T17:32:40.130Z,101020.52
2018-03-19T17:35:08.303Z,101029.73
2018-03-19T17:37:36.469Z,101028.72
2018-03-19T17:40:04.604Z,101034.27
2018-03-19T17:42:32.753Z,101045.45
2018-03-19T17:45:00.875Z,101043.87
2018-03-19T17:47:29.038Z,101054.48
2018-03-19T17:49:57.174Z,101051.66
2018-03-19T17:52:26.153Z,101058.94
2018-03-19T17:54:54.314Z,101061.38
2018-03-19T17:57:22.441Z,101070.85
2018-03-19T17:59:50.578Z,101067.53
2018-03-19T18:02:18.703Z,101074.77
2018-03-19T18:04:46.855Z,101075.69
2018-03-19T18:07:14.988Z,101076.84
2018-03-19T18:09:43.119Z,101087.98
2018-03-19T18:12:11.284Z,101095.11
2018-03-19T18:14:39.421Z,101094.80
2018-03-19T18:17:07.571Z,101102.16
2018-03-19T18:19:35.730Z,101109.25
2018-03-19T18:22:03.872Z,101113.23
2018-03-19T18:24:32.091Z,101115.31
2018-03-19T18:27:00.235Z,101119.31
2018-03-19T18:29:28.357Z,101121.63
2018-03-19T18:31:56.524Z,101119.03
2018-03-19T18:34:24.648Z,101120.45
2018-03-19T18:36:52.786Z,101124.77
2018-03-19T18:39:20.927Z,101130.86
2018-03-19T18:41:49.063Z,101135.30
2018-03-19T18:44:17.215Z,101133.17
2018-03-19T18:46:45.377Z,101131.73
2018-03-19T18:49:16.656Z,101137.74
2018-03-19T18:51:44.811Z,101133.41
2018-03-19T18:54:13.003Z,101140.22
2018-03-19T18:56:41.143Z,101146.78
2018-03-19T18:59:09.310Z,101132.38
2018-03-19T19:01:37.455Z,101144.94
2018-03-19T19:04:05.608Z,101146.86
2018-03-19T19:06:33.746Z,101153.94
2018-03-19T19:09:01.887Z,101153.69
2018-03-19T19:11:30.078Z,101160.36
2018-03-19T19:13:58.217Z,101152.44
2018-03-19T19:16:26.359Z,101163.58
2018-03-19T19:18:54.500Z,101161.09
2018-03-19T19:21:23.541Z,101158.61
2018-03-19T19:23:51.700Z,101164.05
2018-03-19T19:26:19.845Z,101163.36
2018-03-19T19:28:47.992Z,101166.36
2018-03-19T19:31:16.184Z,101168.12
2018-03-19T19:33:44.363Z,101173.05
2018-03-19T19:36:12.528Z,101171.72
2018-03-19T19:38:40.695Z,101184.47
2018-03-19T19:41:08.832Z,101178.99
2018-03-19T19:43:36.986Z,101182.62
2018-03-19T19:46:05.124Z,101186.59
2018-03-19T19:48:33.260Z,101191.59
2018-03-19T19:51:01.390Z,101193.77
2018-03-19T19:53:29.548Z,101194.84
2018-03-19T19:55:57.686Z,101204.13
2018-03-19T19:58:25.808Z,101202.22
2018-03-19T20:00:54.460Z,101208.16
2018-03-19T20:03:22.623Z,101211.77
2018-03-19T20:05:50.747Z,101214.25
2018-03-19T20:08:18.898Z,101223.10
2018-03-19T20:10:47.032Z,101222.36
2018-03-19T20:13:15.171Z,101231.50
2018-03-19T20:15:43.327Z,101230.72
2018-03-19T20:18:11.457Z,101229.89
2018-03-19T20:20:39.644Z,101231.94
2018-03-19T20:23:07.800Z,101233.63
2018-03-19T20:25:35.967Z,101241.93
2018-03-19T20:28:04.241Z,101244.57
2018-03-19T20:30:32.510Z,101252.38
2018-03-19T20:33:00.617Z,101249.08
2018-03-19T20:35:28.763Z,101252.22
2018-03-19T20:37:56.902Z,101248.36
2018-03-19T20:40:25.065Z,101250.05
2018-03-19T20:42:53.210Z,101249.98
2018-03-19T20:45:21.324Z,101246.06
2018-03-19T20:47:49.495Z,101251.28
2018-03-19T20:50:17.615Z,101255.67
2018-03-19T20:52:45.771Z,101257.72
2018-03-19T20:55:13.910Z,101258.44
2018-03-19T20:57:42.116Z,101257.41
2018-03-19T21:00:10.268Z,101262.10
2018-03-19T21:02:38.418Z,101261.94
2018-03-19T21:05:06.570Z,101265.61
2018-03-19T21:07:34.709Z,101266.24
2018-03-19T21:10:02.864Z,101265.79
2018-03-19T21:12:31.051Z,101260.72
2018-03-19T21:14:59.175Z,101259.56
2018-03-19T21:17:27.306Z,101264.17
2018-03-19T21:19:55.450Z,101267.70
2018-03-19T21:22:23.618Z,101275.06
2018-03-19T21:24:51.771Z,101274.27
2018-03-19T21:27:19.909Z,101277.83
2018-03-19T21:29:48.073Z,101276.52
2018-03-19T21:32:16.208Z,101281.82
2018-03-19T21:34:44.418Z,101278.42
2018-03-19T21:37:12.594Z,101279.77
2018-03-19T21:39:44.569Z,101277.84
2018-03-19T21:42:12.727Z,101277.36
2018-03-19T21:44:41.027Z,101278.02
2018-03-19T21:47:09.231Z,101282.20
2018-03-19T21:49:37.368Z,101276.95
2018-03-19T21:52:05.493Z,101271.97
2018-03-19T21:54:33.633Z,101270.34
2018-03-19T21:57:01.800Z,101274.98
2018-03-19T21:59:29.938Z,101270.27
2018-03-19T22:01:58.062Z,101278.69
2018-03-19T22:04:26.200Z,101279.32
2018-03-19T22:06:54.359Z,101278.02
2018-03-19T22:09:22.522Z,101282.22
2018-03-19T22:11:50.651Z,101285.22
2018-03-19T22:14:18.827Z,101280.00
2018-03-19T22:16:46.959Z,101282.19
2018-03-19T22:19:15.113Z,101275.02
2018-03-19T22:21:43.258Z,101285.03
2018-03-19T22:24:11.489Z,101282.14
2018-03-19T22:26:39.673Z,101290.02
2018-03-19T22:29:08.000Z,101288.15
2018-03-19T22:31:36.378Z,101286.70
2018-03-19T22:34:04.733Z,101286.27
2018-03-19T22:36:33.799Z,101285.42
2018-03-19T22:39:02.034Z,101288.92
2018-03-19T22:41:30.173Z,101288.72
2018-03-19T22:43:58.603Z,101293.67
2018-03-19T22:46:27.094Z,101287.05
2018-03-19T22:48:55.351Z,101290.11
2018-03-19T22:51:23.746Z,101287.62
2018-03-19T22:53:52.139Z,101283.49
2018-03-19T22:56:20.324Z,101290.66
2018-03-19T22:58:48.576Z,101290.49
2018-03-19T23:01:16.787Z,101294.16
2018-03-19T23:03:45.164Z,101289.62
2018-03-19T23:06:13.350Z,101291.84
2018-03-19T23:08:41.900Z,101294.77
2018-03-19T23:11:10.030Z,101296.52
2018-03-19T23:13:38.259Z,101293.27
2018-03-19T23:16:06.380Z,101294.19
2018-03-19T23:18:34.516Z,101294.39
2018-03-19T23:21:02.659Z,101290.84
2018-03-19T23:23:30.874Z,101293.49
2018-03-19T23:25:59.373Z,101297.22
2018-03-19T23:28:27.632Z,101296.24
2018-03-19T23:30:55.789Z,101300.28
2018-03-19T23:33:23.938Z,101304.18
2018-03-19T23:35:52.140Z,101305.26
2018-03-19T23:38:20.514Z,101305.70
2018-03-19T23:40:48.810Z,101306.45
2018-03-19T23:43:17.070Z,101303.72
2018-03-19T23:45:45.374Z,101295.05
2018-03-19T23:48:13.674Z,101292.12
2018-03-19T23:50:41.846Z,101290.67
2018-03-19T23:53:09.980Z,101287.07
2018-03-19T23:55:38.112Z,101284.91
2018-03-19T23:58:06.241Z,101283.58
